sensor_id;sensor_type;location;lat;lon;timestamp;temperature;humidity
46091;DHT22;31826;53.572;10.170;2022-08-01T00:00:40;18.60;99.90
46091;DHT22;31826;53.572;10.170;2022-08-01T00:03:05;18.60;99.90
46091;DHT22;31826;53.572;10.170;2022-08-01T00:05:31;18.60;99.90
46091;DHT22;31826;53.572;10.170;2022-08-01T00:07:57;18.60;99.90
46091;DHT22;31826;53.572;10.170;2022-08-01T00:10:23;18.60;99.90
46091;DHT22;31826;53.572;10.170;2022-08-01T00:12:49;18.60;99.90
46091;DHT22;31826;53.572;10.170;2022-08-01T00:15:16;18.50;99.90
46091;DHT22;31826;53.572;10.170;2022-08-01T00:17:43;18.50;99.90
46091;DHT22;31826;53.572;10.170;2022-08-01T00:20:11;18.50;99.90
46091;DHT22;31826;53.572;10.170;2022-08-01T00:22:37;18.50;99.90
46091;DHT22;31826;53.572;10.170;2022-08-01T00:25:04;18.40;99.90
46091;DHT22;31826;53.572;10.170;2022-08-01T00:27:30;18.40;99.90
46091;DHT22;31826;53.572;10.170;2022-08-01T00:29:57;18.50;99.90
46091;DHT22;31826;53.572;10.170;2022-08-01T00:32:22;18.50;99.90
46091;DHT22;31826;53.572;10.170;2022-08-01T00:34:48;18.50;99.90
46091;DHT22;31826;53.572;10.170;2022-08-01T00:37:14;18.50;99.90
46091;DHT22;31826;53.572;10.170;2022-08-01T00:39:40;18.50;99.90
46091;DHT22;31826;53.572;10.170;2022-08-01T00:42:07;18.50;99.90
46091;DHT22;31826;53.572;10.170;2022-08-01T00:44:34;18.50;99.90
46091;DHT22;31826;53.572;10.170;2022-08-01T00:46:59;18.50;99.90
46091;DHT22;31826;53.572;10.170;2022-08-01T00:49:25;18.40;99.90
46091;DHT22;31826;53.572;10.170;2022-08-01T00:51:51;18.40;99.90
46091;DHT22;31826;53.572;10.170;2022-08-01T00:54:17;18.40;99.90
46091;DHT22;31826;53.572;10.170;2022-08-01T00:56:43;18.50;99.90
46091;DHT22;31826;53.572;10.170;2022-08-01T00:59:09;18.50;99.90
46091;DHT22;31826;53.572;10.170;2022-08-01T01:01:36;18.50;99.90
46091;DHT22;31826;53.572;10.170;2022-08-01T01:04:02;18.40;99.90
46091;DHT22;31826;53.572;10.170;2022-08-01T01:09:33;18.40;99.90
46091;DHT22;31826;53.572;10.170;2022-08-01T01:12:19;18.50;99.90
46091;DHT22;31826;53.572;10.170;2022-08-01T01:14:56;18.40;99.90
46091;DHT22;31826;53.572;10.170;2022-08-01T01:17:35;18.40;99.90
46091;DHT22;31826;53.572;10.170;2022-08-01T01:20:03;18.40;99.90
46091;DHT22;31826;53.572;10.170;2022-08-01T01:30:32;18.30;99.90
46091;DHT22;31826;53.572;10.170;2022-08-01T01:33:03;18.30;99.90
46091;DHT22;31826;53.572;10.170;2022-08-01T01:35:37;18.30;99.90
46091;DHT22;31826;53.572;10.170;2022-08-01T01:38:26;18.30;99.90
46091;DHT22;31826;53.572;10.170;2022-08-01T01:40:53;18.20;99.90
46091;DHT22;31826;53.572;10.170;2022-08-01T01:43:21;18.20;99.90
46091;DHT22;31826;53.572;10.170;2022-08-01T01:45:49;18.30;99.90
46091;DHT22;31826;53.572;10.170;2022-08-01T01:48:18;18.20;99.90
46091;DHT22;31826;53.572;10.170;2022-08-01T01:50:46;18.20;99.90
46091;DHT22;31826;53.572;10.170;2022-08-01T01:53:14;18.20;99.90
46091;DHT22;31826;53.572;10.170;2022-08-01T01:55:43;18.20;99.90
46091;DHT22;31826;53.572;10.170;2022-08-01T01:58:12;18.20;99.90
46091;DHT22;31826;53.572;10.170;2022-08-01T02:00:40;18.20;99.90
46091;DHT22;31826;53.572;10.170;2022-08-01T02:03:09;18.20;99.90
46091;DHT22;31826;53.572;10.170;2022-08-01T02:05:36;18.10;99.90
46091;DHT22;31826;53.572;10.170;2022-08-01T02:08:04;18.10;99.90
46091;DHT22;31826;53.572;10.170;2022-08-01T02:10:32;18.20;99.90
46091;DHT22;31826;53.572;10.170;2022-08-01T02:13:02;18.10;99.90
46091;DHT22;31826;53.572;10.170;2022-08-01T02:15:30;18.20;99.90
46091;DHT22;31826;53.572;10.170;2022-08-01T02:17:57;18.10;99.90
46091;DHT22;31826;53.572;10.170;2022-08-01T02:20:26;18.20;99.90
46091;DHT22;31826;53.572;10.170;2022-08-01T02:22:58;18.10;99.90
46091;DHT22;31826;53.572;10.170;2022-08-01T02:25:35;18.10;99.90
46091;DHT22;31826;53.572;10.170;2022-08-01T02:28:13;18.00;99.90
46091;DHT22;31826;53.572;10.170;2022-08-01T02:30:46;18.00;99.90
46091;DHT22;31826;53.572;10.170;2022-08-01T02:33:16;18.00;99.90
46091;DHT22;31826;53.572;10.170;2022-08-01T02:35:46;18.10;99.90
46091;DHT22;31826;53.572;10.170;2022-08-01T02:38:13;18.10;99.90
46091;DHT22;31826;53.572;10.170;2022-08-01T02:40:43;18.10;99.90
46091;DHT22;31826;53.572;10.170;2022-08-01T02:43:12;18.10;99.90
46091;DHT22;31826;53.572;10.170;2022-08-01T02:45:51;18.10;99.90
46091;DHT22;31826;53.572;10.170;2022-08-01T02:48:19;18.00;99.90
46091;DHT22;31826;53.572;10.170;2022-08-01T02:50:48;18.00;99.90
46091;DHT22;31826;53.572;10.170;2022-08-01T02:53:16;18.10;99.90
46091;DHT22;31826;53.572;10.170;2022-08-01T02:55:44;18.20;99.90
46091;DHT22;31826;53.572;10.170;2022-08-01T02:58:14;18.10;99.90
46091;DHT22;31826;53.572;10.170;2022-08-01T03:00:42;18.10;99.90
46091;DHT22;31826;53.572;10.170;2022-08-01T03:03:09;18.10;99.90
46091;DHT22;31826;53.572;10.170;2022-08-01T03:05:36;18.10;99.90
46091;DHT22;31826;53.572;10.170;2022-08-01T03:08:03;18.20;99.90
46091;DHT22;31826;53.572;10.170;2022-08-01T03:10:31;18.10;99.90
46091;DHT22;31826;53.572;10.170;2022-08-01T03:13:00;18.10;99.90
46091;DHT22;31826;53.572;10.170;2022-08-01T03:15:27;18.00;99.90
46091;DHT22;31826;53.572;10.170;2022-08-01T03:17:57;18.10;99.90
46091;DHT22;31826;53.572;10.170;2022-08-01T03:20:25;18.00;99.90
46091;DHT22;31826;53.572;10.170;2022-08-01T03:22:53;18.00;99.90
46091;DHT22;31826;53.572;10.170;2022-08-01T03:25:20;18.00;99.90
46091;DHT22;31826;53.572;10.170;2022-08-01T03:27:54;18.00;99.90
46091;DHT22;31826;53.572;10.170;2022-08-01T03:30:23;17.90;99.90
46091;DHT22;31826;53.572;10.170;2022-08-01T03:32:49;18.00;99.90
46091;DHT22;31826;53.572;10.170;2022-08-01T03:35:15;18.10;99.90
46091;DHT22;31826;53.572;10.170;2022-08-01T03:37:44;17.90;99.90
46091;DHT22;31826;53.572;10.170;2022-08-01T03:40:23;17.90;99.90
46091;DHT22;31826;53.572;10.170;2022-08-01T03:43:01;17.90;99.90
46091;DHT22;31826;53.572;10.170;2022-08-01T03:45:32;17.90;99.90
46091;DHT22;31826;53.572;10.170;2022-08-01T03:48:02;17.90;99.90
46091;DHT22;31826;53.572;10.170;2022-08-01T03:50:30;17.80;99.90
46091;DHT22;31826;53.572;10.170;2022-08-01T03:53:00;17.80;99.90
46091;DHT22;31826;53.572;10.170;2022-08-01T03:55:28;17.90;99.90
46091;DHT22;31826;53.572;10.170;2022-08-01T03:57:55;17.90;99.90
46091;DHT22;31826;53.572;10.170;2022-08-01T04:00:22;17.70;99.90
46091;DHT22;31826;53.572;10.170;2022-08-01T04:02:50;17.80;99.90
46091;DHT22;31826;53.572;10.170;2022-08-01T04:05:17;17.80;99.90
46091;DHT22;31826;53.572;10.170;2022-08-01T04:07:48;17.80;99.90
46091;DHT22;31826;53.572;10.170;2022-08-01T04:10:22;17.90;99.90
46091;DHT22;31826;53.572;10.170;2022-08-01T04:12:48;17.90;99.90
46091;DHT22;31826;53.572;10.170;2022-08-01T04:15:15;17.90;99.90
46091;DHT22;31826;53.572;10.170;2022-08-01T04:17:40;17.90;99.90
46091;DHT22;31826;53.572;10.170;2022-08-01T04:20:07;17.80;99.90
46091;DHT22;31826;53.572;10.170;2022-08-01T04:22:33;17.90;99.90
46091;DHT22;31826;53.572;10.170;2022-08-01T04:25:00;17.90;99.90
46091;DHT22;31826;53.572;10.170;2022-08-01T04:27:34;17.90;99.90
46091;DHT22;31826;53.572;10.170;2022-08-01T04:30:01;17.90;99.90
46091;DHT22;31826;53.572;10.170;2022-08-01T04:32:31;17.90;99.90
46091;DHT22;31826;53.572;10.170;2022-08-01T04:35:00;18.00;99.90
46091;DHT22;31826;53.572;10.170;2022-08-01T04:37:28;18.00;99.90
46091;DHT22;31826;53.572;10.170;2022-08-01T04:39:56;17.90;99.90
46091;DHT22;31826;53.572;10.170;2022-08-01T04:42:24;17.90;99.90
46091;DHT22;31826;53.572;10.170;2022-08-01T04:44:50;18.00;99.90
46091;DHT22;31826;53.572;10.170;2022-08-01T04:47:17;17.90;99.90
46091;DHT22;31826;53.572;10.170;2022-08-01T04:49:43;18.00;99.90
46091;DHT22;31826;53.572;10.170;2022-08-01T04:52:11;18.00;99.90
46091;DHT22;31826;53.572;10.170;2022-08-01T04:54:37;18.00;99.90
46091;DHT22;31826;53.572;10.170;2022-08-01T04:57:05;18.00;99.90
46091;DHT22;31826;53.572;10.170;2022-08-01T04:59:33;18.00;99.90
46091;DHT22;31826;53.572;10.170;2022-08-01T05:02:17;18.10;99.90
46091;DHT22;31826;53.572;10.170;2022-08-01T05:04:44;18.00;99.90
46091;DHT22;31826;53.572;10.170;2022-08-01T05:07:11;18.00;99.90
46091;DHT22;31826;53.572;10.170;2022-08-01T05:09:38;18.00;99.90
46091;DHT22;31826;53.572;10.170;2022-08-01T05:12:05;18.10;99.90
46091;DHT22;31826;53.572;10.170;2022-08-01T05:14:31;18.00;99.90
46091;DHT22;31826;53.572;10.170;2022-08-01T05:17:02;18.10;99.90
46091;DHT22;31826;53.572;10.170;2022-08-01T05:19:39;18.10;99.90
46091;DHT22;31826;53.572;10.170;2022-08-01T05:22:06;18.10;99.90
46091;DHT22;31826;53.572;10.170;2022-08-01T05:24:36;18.10;99.90
46091;DHT22;31826;53.572;10.170;2022-08-01T05:27:03;18.00;99.90
46091;DHT22;31826;53.572;10.170;2022-08-01T05:29:30;18.00;99.90
46091;DHT22;31826;53.572;10.170;2022-08-01T05:31:56;18.10;99.90
46091;DHT22;31826;53.572;10.170;2022-08-01T05:34:22;18.10;99.90
46091;DHT22;31826;53.572;10.170;2022-08-01T05:36:48;18.10;99.90
46091;DHT22;31826;53.572;10.170;2022-08-01T05:39:14;18.10;99.90
46091;DHT22;31826;53.572;10.170;2022-08-01T05:41:40;18.10;99.90
46091;DHT22;31826;53.572;10.170;2022-08-01T05:44:07;18.10;99.90
46091;DHT22;31826;53.572;10.170;2022-08-01T05:46:33;18.10;99.90
46091;DHT22;31826;53.572;10.170;2022-08-01T05:49:00;18.10;99.90
46091;DHT22;31826;53.572;10.170;2022-08-01T05:51:26;18.20;99.90
46091;DHT22;31826;53.572;10.170;2022-08-01T05:53:52;18.10;99.90
46091;DHT22;31826;53.572;10.170;2022-08-01T05:56:18;18.10;99.90
46091;DHT22;31826;53.572;10.170;2022-08-01T05:58:44;18.10;99.90
46091;DHT22;31826;53.572;10.170;2022-08-01T06:01:10;18.00;99.90
46091;DHT22;31826;53.572;10.170;2022-08-01T06:03:36;18.00;99.90
46091;DHT22;31826;53.572;10.170;2022-08-01T06:06:03;18.10;99.90
46091;DHT22;31826;53.572;10.170;2022-08-01T06:08:29;18.20;99.90
46091;DHT22;31826;53.572;10.170;2022-08-01T06:10:55;18.10;99.90
46091;DHT22;31826;53.572;10.170;2022-08-01T06:13:21;18.20;99.90
46091;DHT22;31826;53.572;10.170;2022-08-01T06:15:48;18.20;99.90
46091;DHT22;31826;53.572;10.170;2022-08-01T06:18:14;18.30;99.90
46091;DHT22;31826;53.572;10.170;2022-08-01T06:20:40;18.30;99.90
46091;DHT22;31826;53.572;10.170;2022-08-01T06:23:07;18.30;99.90
46091;DHT22;31826;53.572;10.170;2022-08-01T06:25:33;18.30;99.90
46091;DHT22;31826;53.572;10.170;2022-08-01T06:27:59;18.30;99.90
46091;DHT22;31826;53.572;10.170;2022-08-01T06:30:25;18.30;99.90
46091;DHT22;31826;53.572;10.170;2022-08-01T06:32:51;18.30;99.90
46091;DHT22;31826;53.572;10.170;2022-08-01T06:35:17;18.20;99.90
46091;DHT22;31826;53.572;10.170;2022-08-01T06:37:43;18.20;99.90
46091;DHT22;31826;53.572;10.170;2022-08-01T06:40:10;18.20;99.90
46091;DHT22;31826;53.572;10.170;2022-08-01T06:42:37;18.30;99.90
46091;DHT22;31826;53.572;10.170;2022-08-01T06:45:10;18.20;99.90
46091;DHT22;31826;53.572;10.170;2022-08-01T06:47:37;18.50;99.90
46091;DHT22;31826;53.572;10.170;2022-08-01T06:50:04;18.70;99.90
46091;DHT22;31826;53.572;10.170;2022-08-01T06:52:29;18.70;99.90
46091;DHT22;31826;53.572;10.170;2022-08-01T06:54:55;18.60;99.90
46091;DHT22;31826;53.572;10.170;2022-08-01T06:57:21;18.60;99.90
46091;DHT22;31826;53.572;10.170;2022-08-01T06:59:47;18.50;99.90
46091;DHT22;31826;53.572;10.170;2022-08-01T07:02:12;18.50;99.90
46091;DHT22;31826;53.572;10.170;2022-08-01T07:04:38;18.60;99.90
46091;DHT22;31826;53.572;10.170;2022-08-01T07:07:04;18.50;99.90
46091;DHT22;31826;53.572;10.170;2022-08-01T07:09:30;18.50;99.90
46091;DHT22;31826;53.572;10.170;2022-08-01T07:11:55;18.40;99.90
46091;DHT22;31826;53.572;10.170;2022-08-01T07:14:23;18.40;99.90
46091;DHT22;31826;53.572;10.170;2022-08-01T07:16:49;18.40;99.90
46091;DHT22;31826;53.572;10.170;2022-08-01T07:19:15;18.60;99.90
46091;DHT22;31826;53.572;10.170;2022-08-01T07:21:41;18.60;99.90
46091;DHT22;31826;53.572;10.170;2022-08-01T07:24:08;18.80;99.90
46091;DHT22;31826;53.572;10.170;2022-08-01T07:26:34;18.90;99.90
46091;DHT22;31826;53.572;10.170;2022-08-01T07:29:00;19.00;99.90
46091;DHT22;31826;53.572;10.170;2022-08-01T07:31:25;18.90;99.90
46091;DHT22;31826;53.572;10.170;2022-08-01T07:33:51;18.90;99.90
46091;DHT22;31826;53.572;10.170;2022-08-01T07:36:17;18.90;99.90
46091;DHT22;31826;53.572;10.170;2022-08-01T07:38:44;18.70;99.90
46091;DHT22;31826;53.572;10.170;2022-08-01T07:41:10;18.70;99.90
46091;DHT22;31826;53.572;10.170;2022-08-01T07:43:36;18.50;99.90
46091;DHT22;31826;53.572;10.170;2022-08-01T07:46:05;18.40;99.90
46091;DHT22;31826;53.572;10.170;2022-08-01T07:48:31;18.30;99.90
46091;DHT22;31826;53.572;10.170;2022-08-01T07:50:57;18.40;99.90
46091;DHT22;31826;53.572;10.170;2022-08-01T07:53:22;18.40;99.90
46091;DHT22;31826;53.572;10.170;2022-08-01T07:55:48;18.40;99.90
46091;DHT22;31826;53.572;10.170;2022-08-01T07:58:15;18.40;99.90
46091;DHT22;31826;53.572;10.170;2022-08-01T08:00:41;18.40;99.90
46091;DHT22;31826;53.572;10.170;2022-08-01T08:03:07;18.40;99.90
46091;DHT22;31826;53.572;10.170;2022-08-01T08:05:33;18.60;99.90
46091;DHT22;31826;53.572;10.170;2022-08-01T08:08:05;18.50;99.90
46091;DHT22;31826;53.572;10.170;2022-08-01T08:10:31;18.60;99.90
46091;DHT22;31826;53.572;10.170;2022-08-01T08:12:57;18.70;99.90
46091;DHT22;31826;53.572;10.170;2022-08-01T08:15:23;18.90;99.90
46091;DHT22;31826;53.572;10.170;2022-08-01T08:17:48;19.00;99.90
46091;DHT22;31826;53.572;10.170;2022-08-01T08:20:14;18.80;99.90
46091;DHT22;31826;53.572;10.170;2022-08-01T08:22:40;18.90;99.90
46091;DHT22;31826;53.572;10.170;2022-08-01T08:25:06;19.00;99.90
46091;DHT22;31826;53.572;10.170;2022-08-01T08:27:32;19.00;99.90
46091;DHT22;31826;53.572;10.170;2022-08-01T08:29:58;19.00;99.90
46091;DHT22;31826;53.572;10.170;2022-08-01T08:32:24;19.10;99.90
46091;DHT22;31826;53.572;10.170;2022-08-01T08:34:49;19.30;99.90
46091;DHT22;31826;53.572;10.170;2022-08-01T08:37:15;19.40;99.90
46091;DHT22;31826;53.572;10.170;2022-08-01T08:39:42;19.50;99.90
46091;DHT22;31826;53.572;10.170;2022-08-01T08:42:09;19.50;99.90
46091;DHT22;31826;53.572;10.170;2022-08-01T08:44:36;19.60;99.90
46091;DHT22;31826;53.572;10.170;2022-08-01T08:47:03;19.60;99.90
46091;DHT22;31826;53.572;10.170;2022-08-01T08:49:32;19.50;99.90
46091;DHT22;31826;53.572;10.170;2022-08-01T08:52:00;19.30;99.90
46091;DHT22;31826;53.572;10.170;2022-08-01T08:54:27;19.30;99.90
46091;DHT22;31826;53.572;10.170;2022-08-01T08:56:54;19.20;99.90
46091;DHT22;31826;53.572;10.170;2022-08-01T08:59:20;19.20;99.90
46091;DHT22;31826;53.572;10.170;2022-08-01T09:01:46;19.20;99.90
46091;DHT22;31826;53.572;10.170;2022-08-01T09:04:12;19.20;99.90
46091;DHT22;31826;53.572;10.170;2022-08-01T09:06:39;19.10;99.90
46091;DHT22;31826;53.572;10.170;2022-08-01T09:09:06;19.40;99.90
46091;DHT22;31826;53.572;10.170;2022-08-01T09:11:32;19.50;99.90
46091;DHT22;31826;53.572;10.170;2022-08-01T09:14:13;19.60;99.90
46091;DHT22;31826;53.572;10.170;2022-08-01T09:16:43;19.60;99.90
46091;DHT22;31826;53.572;10.170;2022-08-01T09:21:59;19.90;99.90
46091;DHT22;31826;53.572;10.170;2022-08-01T09:24:26;20.40;99.90
46091;DHT22;31826;53.572;10.170;2022-08-01T09:26:53;20.90;99.90
46091;DHT22;31826;53.572;10.170;2022-08-01T09:29:29;21.30;99.90
46091;DHT22;31826;53.572;10.170;2022-08-01T09:31:55;21.70;99.90
46091;DHT22;31826;53.572;10.170;2022-08-01T09:34:30;21.80;99.90
46091;DHT22;31826;53.572;10.170;2022-08-01T09:36:58;21.90;99.90
46091;DHT22;31826;53.572;10.170;2022-08-01T09:39:27;22.10;99.90
46091;DHT22;31826;53.572;10.170;2022-08-01T09:41:55;22.00;99.90
46091;DHT22;31826;53.572;10.170;2022-08-01T09:44:40;22.10;99.90
46091;DHT22;31826;53.572;10.170;2022-08-01T09:47:06;22.30;99.90
46091;DHT22;31826;53.572;10.170;2022-08-01T09:49:34;22.10;99.90
46091;DHT22;31826;53.572;10.170;2022-08-01T09:52:22;21.50;99.90
46091;DHT22;31826;53.572;10.170;2022-08-01T09:57:20;21.60;99.90
46091;DHT22;31826;53.572;10.170;2022-08-01T09:59:48;22.20;99.90
46091;DHT22;31826;53.572;10.170;2022-08-01T10:02:26;22.70;99.90
46091;DHT22;31826;53.572;10.170;2022-08-01T10:04:52;22.90;99.90
46091;DHT22;31826;53.572;10.170;2022-08-01T10:07:19;23.30;99.90
46091;DHT22;31826;53.572;10.170;2022-08-01T10:09:46;23.30;99.90
46091;DHT22;31826;53.572;10.170;2022-08-01T10:12:17;23.10;99.90
46091;DHT22;31826;53.572;10.170;2022-08-01T10:14:45;23.20;99.90
46091;DHT22;31826;53.572;10.170;2022-08-01T10:17:14;23.60;99.90
46091;DHT22;31826;53.572;10.170;2022-08-01T10:19:41;24.10;99.90
46091;DHT22;31826;53.572;10.170;2022-08-01T10:22:09;23.90;97.70
46091;DHT22;31826;53.572;10.170;2022-08-01T10:24:37;24.00;98.60
46091;DHT22;31826;53.572;10.170;2022-08-01T10:27:06;24.20;98.60
46091;DHT22;31826;53.572;10.170;2022-08-01T10:29:42;24.20;95.00
46091;DHT22;31826;53.572;10.170;2022-08-01T10:32:09;24.00;96.70
46091;DHT22;31826;53.572;10.170;2022-08-01T10:34:37;23.90;94.60
46091;DHT22;31826;53.572;10.170;2022-08-01T10:37:07;24.10;96.40
46091;DHT22;31826;53.572;10.170;2022-08-01T10:39:33;24.20;93.10
46091;DHT22;31826;53.572;10.170;2022-08-01T10:42:00;24.20;95.40
46091;DHT22;31826;53.572;10.170;2022-08-01T10:44:27;24.90;96.30
46091;DHT22;31826;53.572;10.170;2022-08-01T10:47:15;25.60;94.60
46091;DHT22;31826;53.572;10.170;2022-08-01T10:49:50;25.90;91.40
46091;DHT22;31826;53.572;10.170;2022-08-01T10:52:17;25.70;88.70
46091;DHT22;31826;53.572;10.170;2022-08-01T10:54:44;25.90;93.10
46091;DHT22;31826;53.572;10.170;2022-08-01T10:57:10;26.10;92.40
46091;DHT22;31826;53.572;10.170;2022-08-01T10:59:48;26.40;91.80
46091;DHT22;31826;53.572;10.170;2022-08-01T11:02:29;26.70;90.40
46091;DHT22;31826;53.572;10.170;2022-08-01T11:04:58;26.50;89.50
46091;DHT22;31826;53.572;10.170;2022-08-01T11:07:51;26.00;86.00
46091;DHT22;31826;53.572;10.170;2022-08-01T11:10:59;25.80;85.60
46091;DHT22;31826;53.572;10.170;2022-08-01T11:16:31;25.90;90.40
46091;DHT22;31826;53.572;10.170;2022-08-01T11:18:56;26.20;88.30
46091;DHT22;31826;53.572;10.170;2022-08-01T11:27:40;26.00;82.40
46091;DHT22;31826;53.572;10.170;2022-08-01T11:32:56;25.40;81.50
46091;DHT22;31826;53.572;10.170;2022-08-01T11:35:25;25.40;81.60
46091;DHT22;31826;53.572;10.170;2022-08-01T11:37:53;25.70;85.70
46091;DHT22;31826;53.572;10.170;2022-08-01T11:40:28;26.20;85.00
46091;DHT22;31826;53.572;10.170;2022-08-01T11:45:53;26.00;82.20
46091;DHT22;31826;53.572;10.170;2022-08-01T11:48:25;26.20;80.70
46091;DHT22;31826;53.572;10.170;2022-08-01T11:50:54;25.90;80.30
46091;DHT22;31826;53.572;10.170;2022-08-01T11:53:20;25.60;78.80
46091;DHT22;31826;53.572;10.170;2022-08-01T11:55:50;26.00;81.70
46091;DHT22;31826;53.572;10.170;2022-08-01T11:58:24;26.20;79.20
46091;DHT22;31826;53.572;10.170;2022-08-01T12:00:54;26.30;83.10
46091;DHT22;31826;53.572;10.170;2022-08-01T12:03:28;26.70;82.60
46091;DHT22;31826;53.572;10.170;2022-08-01T12:05:55;26.60;78.20
46091;DHT22;31826;53.572;10.170;2022-08-01T12:08:29;26.60;74.00
46091;DHT22;31826;53.572;10.170;2022-08-01T12:10:55;26.50;74.30
46091;DHT22;31826;53.572;10.170;2022-08-01T12:13:21;26.20;73.30
46091;DHT22;31826;53.572;10.170;2022-08-01T12:15:48;26.30;77.00
46091;DHT22;31826;53.572;10.170;2022-08-01T12:18:16;26.50;79.00
46091;DHT22;31826;53.572;10.170;2022-08-01T12:20:43;26.80;72.50
46091;DHT22;31826;53.572;10.170;2022-08-01T12:23:11;27.40;74.50
46091;DHT22;31826;53.572;10.170;2022-08-01T12:25:38;27.60;76.40
46091;DHT22;31826;53.572;10.170;2022-08-01T12:28:11;27.80;75.00
46091;DHT22;31826;53.572;10.170;2022-08-01T12:30:40;28.10;70.80
46091;DHT22;31826;53.572;10.170;2022-08-01T12:33:08;28.20;72.30
46091;DHT22;31826;53.572;10.170;2022-08-01T12:35:36;27.80;70.90
46091;DHT22;31826;53.572;10.170;2022-08-01T12:38:05;27.40;68.80
46091;DHT22;31826;53.572;10.170;2022-08-01T12:40:36;26.80;71.30
46091;DHT22;31826;53.572;10.170;2022-08-01T12:43:07;27.00;71.90
46091;DHT22;31826;53.572;10.170;2022-08-01T12:45:43;26.70;69.70
46091;DHT22;31826;53.572;10.170;2022-08-01T12:48:13;27.10;73.60
46091;DHT22;31826;53.572;10.170;2022-08-01T12:50:41;27.10;68.30
46091;DHT22;31826;53.572;10.170;2022-08-01T12:53:08;27.00;67.70
46091;DHT22;31826;53.572;10.170;2022-08-01T12:55:47;27.10;66.00
46091;DHT22;31826;53.572;10.170;2022-08-01T12:58:15;27.10;66.60
46091;DHT22;31826;53.572;10.170;2022-08-01T13:00:44;27.00;66.80
46091;DHT22;31826;53.572;10.170;2022-08-01T13:03:20;27.00;68.80
46091;DHT22;31826;53.572;10.170;2022-08-01T13:05:55;27.40;69.20
46091;DHT22;31826;53.572;10.170;2022-08-01T13:11:06;28.10;65.60
46091;DHT22;31826;53.572;10.170;2022-08-01T13:13:40;27.90;65.60
46091;DHT22;31826;53.572;10.170;2022-08-01T13:16:08;28.10;68.60
46091;DHT22;31826;53.572;10.170;2022-08-01T13:18:35;28.10;65.70
46091;DHT22;31826;53.572;10.170;2022-08-01T13:23:42;27.60;61.70
46091;DHT22;31826;53.572;10.170;2022-08-01T13:26:47;27.30;62.90
46091;DHT22;31826;53.572;10.170;2022-08-01T13:31:43;26.80;65.10
46091;DHT22;31826;53.572;10.170;2022-08-01T13:34:10;26.60;66.50
46091;DHT22;31826;53.572;10.170;2022-08-01T13:36:36;26.20;68.00
46091;DHT22;31826;53.572;10.170;2022-08-01T13:39:03;26.00;67.80
46091;DHT22;31826;53.572;10.170;2022-08-01T13:41:47;25.90;68.30
46091;DHT22;31826;53.572;10.170;2022-08-01T13:44:14;25.70;64.20
46091;DHT22;31826;53.572;10.170;2022-08-01T13:46:41;25.60;68.60
46091;DHT22;31826;53.572;10.170;2022-08-01T13:49:10;25.70;67.30
46091;DHT22;31826;53.572;10.170;2022-08-01T13:51:36;25.80;66.00
46091;DHT22;31826;53.572;10.170;2022-08-01T13:54:03;26.10;69.10
46091;DHT22;31826;53.572;10.170;2022-08-01T13:56:29;25.90;65.30
46091;DHT22;31826;53.572;10.170;2022-08-01T13:58:55;25.50;67.90
46091;DHT22;31826;53.572;10.170;2022-08-01T14:01:22;25.40;67.10
46091;DHT22;31826;53.572;10.170;2022-08-01T14:03:48;25.50;68.90
46091;DHT22;31826;53.572;10.170;2022-08-01T14:06:14;25.70;69.80
46091;DHT22;31826;53.572;10.170;2022-08-01T14:08:42;26.20;70.70
46091;DHT22;31826;53.572;10.170;2022-08-01T14:11:08;26.30;64.20
46091;DHT22;31826;53.572;10.170;2022-08-01T14:13:34;26.00;61.80
46091;DHT22;31826;53.572;10.170;2022-08-01T14:15:59;25.90;66.50
46091;DHT22;31826;53.572;10.170;2022-08-01T14:18:26;25.90;63.00
46091;DHT22;31826;53.572;10.170;2022-08-01T14:20:51;25.70;64.40
46091;DHT22;31826;53.572;10.170;2022-08-01T14:23:17;25.90;66.00
46091;DHT22;31826;53.572;10.170;2022-08-01T14:25:43;25.40;63.40
46091;DHT22;31826;53.572;10.170;2022-08-01T14:28:09;25.40;66.00
46091;DHT22;31826;53.572;10.170;2022-08-01T14:30:35;25.20;64.60
46091;DHT22;31826;53.572;10.170;2022-08-01T14:33:01;24.70;63.50
46091;DHT22;31826;53.572;10.170;2022-08-01T14:35:27;24.40;65.00
46091;DHT22;31826;53.572;10.170;2022-08-01T14:37:53;24.30;67.50
46091;DHT22;31826;53.572;10.170;2022-08-01T14:40:19;24.50;68.20
46091;DHT22;31826;53.572;10.170;2022-08-01T14:42:45;24.60;65.00
46091;DHT22;31826;53.572;10.170;2022-08-01T14:45:12;24.30;66.20
46091;DHT22;31826;53.572;10.170;2022-08-01T14:47:39;24.20;67.00
46091;DHT22;31826;53.572;10.170;2022-08-01T14:50:08;24.30;68.10
46091;DHT22;31826;53.572;10.170;2022-08-01T14:52:35;24.40;68.50
46091;DHT22;31826;53.572;10.170;2022-08-01T14:55:01;24.30;66.10
46091;DHT22;31826;53.572;10.170;2022-08-01T14:57:27;24.00;68.40
46091;DHT22;31826;53.572;10.170;2022-08-01T14:59:53;23.70;67.60
46091;DHT22;31826;53.572;10.170;2022-08-01T15:02:18;23.90;67.50
46091;DHT22;31826;53.572;10.170;2022-08-01T15:04:48;23.90;67.80
46091;DHT22;31826;53.572;10.170;2022-08-01T15:07:15;23.70;68.20
46091;DHT22;31826;53.572;10.170;2022-08-01T15:09:42;23.70;69.10
46091;DHT22;31826;53.572;10.170;2022-08-01T15:12:08;23.60;69.20
46091;DHT22;31826;53.572;10.170;2022-08-01T15:14:34;23.70;69.40
46091;DHT22;31826;53.572;10.170;2022-08-01T15:17:20;23.40;72.30
46091;DHT22;31826;53.572;10.170;2022-08-01T15:19:47;23.50;72.80
46091;DHT22;31826;53.572;10.170;2022-08-01T15:22:14;23.80;72.30
46091;DHT22;31826;53.572;10.170;2022-08-01T15:24:41;23.60;71.60
46091;DHT22;31826;53.572;10.170;2022-08-01T15:27:08;23.80;71.60
46091;DHT22;31826;53.572;10.170;2022-08-01T15:29:33;23.80;71.60
46091;DHT22;31826;53.572;10.170;2022-08-01T15:32:00;24.00;74.60
46091;DHT22;31826;53.572;10.170;2022-08-01T15:34:26;24.20;73.80
46091;DHT22;31826;53.572;10.170;2022-08-01T15:36:52;24.30;71.70
46091;DHT22;31826;53.572;10.170;2022-08-01T15:39:17;23.90;72.20
46091;DHT22;31826;53.572;10.170;2022-08-01T15:41:43;23.80;73.80
46091;DHT22;31826;53.572;10.170;2022-08-01T15:44:09;23.80;75.40
46091;DHT22;31826;53.572;10.170;2022-08-01T15:46:35;23.60;73.00
46091;DHT22;31826;53.572;10.170;2022-08-01T15:49:05;23.50;75.60
46091;DHT22;31826;53.572;10.170;2022-08-01T15:51:31;23.50;75.80
46091;DHT22;31826;53.572;10.170;2022-08-01T15:53:58;23.50;75.00
46091;DHT22;31826;53.572;10.170;2022-08-01T15:56:24;23.50;73.30
46091;DHT22;31826;53.572;10.170;2022-08-01T15:58:50;23.40;74.70
46091;DHT22;31826;53.572;10.170;2022-08-01T16:01:16;23.60;76.50